Airfield :
LOGIN :

Register | Disclaimer

   EN    FR    IT 

 










Legend :    VFR   Marginal VFR   IFR   Intensive IFR   Very Intensive IFR
Visi :
Ceiling :
>= 8 km
>= 3000ft
5 to 8 km
1000 to 3000 ft
1500m to 5 km
500 to 1000 ft
800 to 1500m
200 to 500 ft
< 800m
< 200 ft
Symbols :   Thunderstorms  Fog  Heavy snow  Heavy precipitations  Wind > 20 kt
SIGMETs :     Misc.  Thunderstorms  Icing  Turbulence  Mountain Waves  Volcanic Ashes







- Airport Elevation : 204 ft
- IATA code : AGF
- Download approach charts


LFBA - Agen

CURRENT METAR :
  • 201230Z AUTO 24007KT 210V290 9999 FEW035/// BKN080/// ///CB 18/11 Q1014 TEMPO 4000 -SHRA BKN008 BKN025TCU

EXPIRED METARs :
  • 201200Z AUTO 28004KT 230V330 9999 SCT032 BKN038 BKN080 17/10 Q1014 TEMPO 4000 -SHRA BKN008 BKN025TCU
  • 201130Z AUTO 27006KT 230V310 9999 FEW028/// BKN068/// BKN082/// ///CB 17/11 Q1014 TEMPO 4000 -SHRA BKN008 BKN025TCU
  • 201100Z AUTO 25009KT 230V290 9999 SCT026 BKN033 BKN060 16/10 Q1014 TEMPO 4000 -SHRA BKN008 BKN025TCU
  • 201030Z AUTO 26005KT 230V310 9999 SCT028 SCT036 BKN045 15/11 Q1014 TEMPO 4000 -SHRA BKN008 BKN025TCU
  • 201000Z AUTO 26006KT 220V320 9999 BKN025 BKN036 OVC064 16/10 Q1014 TEMPO 4000 -SHRA BKN008 BKN025TCU
  • 200930Z AUTO 27007KT 220V330 9999 BKN024 BKN031 OVC062 16/10 Q1014 TEMPO 4000 -SHRA BKN008 BKN025TCU

TAF TAF LFBA
Valid from the 20 at 12:00 until the 20 at 21:00 UTC


201100Z 2012/2021 28003KT 9999 BKN025 BKN060
PROB40
TEMPO 2012/2017 4000 -SHRA BKN008 BKN025TCU
No reported NOTAMs for that airfield.



MET'MAP, your aeronautical weather chart ! - Copyright ORBIFLY December 2007 - Disclaimer

ORBIFLY MET'MAP TEAM :

Programming & Development : Alexandra Zaïnal
Concept & Development : Baudouin d'Aumeries
Co-Development & Prog : Marc-Olivier Méhu
Technical & hardware support : Manuel Goepfert

Contact : metmap@orbifly.com




SOURCES & CREDITS :

   NOAA